Time;durP1;ratioP1;P1;durP2;ratioP2;P2;SDS_P1;SDS_P2;PMS_P1;PMS_P2;Temp;Humidity;BMP_temperature;BMP_pressure;BME280_temperature;BME280_humidity;BME280_pressure;Samples;Min_cycle;Max_cycle;Signal;HPM_P1;HPM_P2
2022/08/07 00:00:57;;;;;;;0.90;0.20;;;;;;;;;;2095491;28;20107;-67
2022/08/07 00:02:16;;;;;;;0.32;0.15;;;;;;;;;;2093169;28;20457;-66
2022/08/07 00:03:35;;;;;;;0.22;0.20;;;;;;;;;;2097326;28;20024;-68
2022/08/07 00:04:54;;;;;;;0.73;0.20;;;;;;;;;;2096305;28;20025;-67
2022/08/07 00:06:13;;;;;;;0.82;0.30;;;;;;;;;;2095893;28;20020;-67
2022/08/07 00:07:32;;;;;;;0.10;0.10;;;;;;;;;;2099004;28;20024;-68
2022/08/07 00:08:51;;;;;;;2.08;0.68;;;;;;;;;;2101105;28;20028;-67
2022/08/07 00:10:10;;;;;;;0.65;0.20;;;;;;;;;;2097204;28;20033;-67
2022/08/07 00:11:29;;;;;;;0.40;0.20;;;;;;;;;;2099504;28;20392;-67
2022/08/07 00:12:49;;;;;;;0.80;0.30;;;;;;;;;;2099984;28;20438;-67
2022/08/07 00:14:08;;;;;;;0.10;0.10;;;;;;;;;;2098180;28;20072;-68
2022/08/07 00:15:27;;;;;;;2.50;0.30;;;;;;;;;;2090626;28;20033;-69
2022/08/07 00:16:46;;;;;;;0.45;0.20;;;;;;;;;;2097689;28;20049;-67
2022/08/07 00:18:05;;;;;;;0.50;0.20;;;;;;;;;;2097234;28;20029;-66
2022/08/07 00:19:24;;;;;;;0.10;0.10;;;;;;;;;;2098748;28;20040;-66
2022/08/07 00:20:43;;;;;;;0.70;0.30;;;;;;;;;;2097822;28;20103;-66
2022/08/07 00:22:02;;;;;;;1.95;0.15;;;;;;;;;;2097729;28;20127;-66
2022/08/07 00:23:21;;;;;;;0.47;0.20;;;;;;;;;;2095321;28;20028;-67
2022/08/07 00:24:40;;;;;;;1.30;0.20;;;;;;;;;;2096856;28;20036;-66
2022/08/07 00:25:59;;;;;;;0.47;0.30;;;;;;;;;;2092864;28;20040;-67
2022/08/07 00:27:18;;;;;;;0.38;0.20;;;;;;;;;;2099496;28;20028;-68
2022/08/07 00:28:37;;;;;;;0.45;0.08;;;;;;;;;;2098003;28;20025;-67
2022/08/07 00:29:56;;;;;;;0.47;0.40;;;;;;;;;;2094642;28;20020;-67
2022/08/07 00:31:15;;;;;;;0.73;0.10;;;;;;;;;;2094555;28;20064;-67
2022/08/07 00:32:34;;;;;;;3.03;0.20;;;;;;;;;;2100743;28;20024;-66
2022/08/07 00:33:53;;;;;;;2.20;0.30;;;;;;;;;;2095642;28;20490;-66
2022/08/07 00:35:12;;;;;;;0.55;0.15;;;;;;;;;;2099377;28;20415;-67
2022/08/07 00:36:31;;;;;;;0.47;0.20;;;;;;;;;;2097846;28;20056;-66
2022/08/07 00:37:50;;;;;;;0.77;0.20;;;;;;;;;;2096914;28;20029;-66
2022/08/07 00:39:09;;;;;;;1.05;0.20;;;;;;;;;;2102184;28;20044;-66
2022/08/07 00:40:28;;;;;;;4.88;0.65;;;;;;;;;;2099527;28;20067;-66
2022/08/07 00:41:51;;;;;;;2.10;0.40;;;;;;;;;;2100305;28;20040;-66
2022/08/07 00:43:11;;;;;;;0.47;0.20;;;;;;;;;;2100441;28;20033;-67
2022/08/07 00:44:31;;;;;;;2.58;0.40;;;;;;;;;;2101679;28;20056;-67
2022/08/07 00:45:49;;;;;;;0.55;0.20;;;;;;;;;;2097871;28;20024;-67
2022/08/07 00:47:08;;;;;;;1.65;0.30;;;;;;;;;;2100932;28;20572;-68
2022/08/07 00:48:27;;;;;;;2.50;0.40;;;;;;;;;;2098007;28;21055;-67
2022/08/07 00:49:46;;;;;;;1.63;0.30;;;;;;;;;;2101472;28;20802;-70
2022/08/07 00:51:05;;;;;;;0.20;0.20;;;;;;;;;;2100191;28;20033;-67
2022/08/07 00:52:24;;;;;;;0.55;0.20;;;;;;;;;;2100234;28;20111;-70
2022/08/07 00:53:43;;;;;;;0.28;0.20;;;;;;;;;;2098350;28;20568;-67
2022/08/07 00:55:02;;;;;;;0.77;0.20;;;;;;;;;;2099253;28;20477;-69
2022/08/07 00:56:22;;;;;;;1.13;0.30;;;;;;;;;;2098460;28;20401;-67
2022/08/07 00:57:42;;;;;;;0.50;0.30;;;;;;;;;;2099149;28;20028;-67
2022/08/07 00:59:01;;;;;;;0.75;0.30;;;;;;;;;;2101537;28;20024;-67
2022/08/07 01:00:20;;;;;;;0.55;0.28;;;;;;;;;;2097616;28;20032;-67
2022/08/07 01:01:40;;;;;;;2.08;0.40;;;;;;;;;;2098372;28;20036;-67
2022/08/07 01:02:59;;;;;;;0.82;0.20;;;;;;;;;;2101766;28;20045;-68
2022/08/07 01:04:18;;;;;;;2.65;0.30;;;;;;;;;;2097548;28;20036;-68
2022/08/07 01:05:38;;;;;;;0.85;0.22;;;;;;;;;;2096692;28;20482;-69
2022/08/07 01:06:56;;;;;;;0.60;0.20;;;;;;;;;;2096060;28;20032;-67
2022/08/07 01:08:15;;;;;;;1.55;0.22;;;;;;;;;;2096558;28;20033;-67
2022/08/07 01:09:34;;;;;;;0.68;0.10;;;;;;;;;;2097944;28;20123;-67
2022/08/07 01:10:53;;;;;;;0.43;0.20;;;;;;;;;;2098950;28;20036;-69
2022/08/07 01:12:13;;;;;;;1.35;0.30;;;;;;;;;;2096833;28;20021;-67
2022/08/07 01:13:32;;;;;;;0.80;0.13;;;;;;;;;;2098556;28;20036;-68
2022/08/07 01:14:52;;;;;;;1.00;0.30;;;;;;;;;;2100862;28;20028;-66
2022/08/07 01:16:10;;;;;;;1.00;0.40;;;;;;;;;;2098444;28;20048;-66
2022/08/07 01:17:30;;;;;;;0.38;0.10;;;;;;;;;;2099201;28;20396;-68
2022/08/07 01:18:50;;;;;;;0.77;0.38;;;;;;;;;;2098154;28;20028;-67
2022/08/07 01:20:10;;;;;;;0.25;0.10;;;;;;;;;;2097543;28;20036;-67
2022/08/07 01:21:29;;;;;;;0.43;0.25;;;;;;;;;;2097142;28;20037;-67
2022/08/07 01:22:48;;;;;;;1.27;0.32;;;;;;;;;;2100418;28;20060;-66
2022/08/07 01:24:08;;;;;;;0.20;0.10;;;;;;;;;;2095354;28;20409;-68
2022/08/07 01:25:27;;;;;;;0.38;0.20;;;;;;;;;;2098880;28;20488;-68
2022/08/07 01:26:46;;;;;;;0.50;0.20;;;;;;;;;;2096441;28;20036;-67
2022/08/07 01:28:05;;;;;;;2.47;0.30;;;;;;;;;;2097428;28;20028;-67
2022/08/07 01:29:25;;;;;;;2.17;0.32;;;;;;;;;;2096717;28;20041;-68
2022/08/07 01:30:45;;;;;;;0.38;0.10;;;;;;;;;;2096371;28;20037;-67
2022/08/07 01:32:04;;;;;;;2.47;0.25;;;;;;;;;;2099372;28;20498;-67
2022/08/07 01:33:23;;;;;;;3.40;0.30;;;;;;;;;;2099338;28;20061;-67
2022/08/07 01:34:44;;;;;;;0.65;0.20;;;;;;;;;;2098522;28;20033;-67
2022/08/07 01:36:03;;;;;;;1.33;0.20;;;;;;;;;;2098544;28;20442;-68
2022/08/07 01:37:22;;;;;;;2.47;0.40;;;;;;;;;;2100577;28;20111;-67
2022/08/07 01:38:41;;;;;;;0.98;0.20;;;;;;;;;;2098715;28;20103;-67
2022/08/07 01:40:03;;;;;;;1.15;0.22;;;;;;;;;;2099944;28;20040;-67
2022/08/07 01:41:22;;;;;;;1.30;0.22;;;;;;;;;;2100773;28;20079;-68
2022/08/07 01:42:41;;;;;;;0.70;0.25;;;;;;;;;;2097964;28;20032;-67
2022/08/07 01:44:00;;;;;;;0.45;0.20;;;;;;;;;;2101319;28;20028;-67
2022/08/07 01:45:20;;;;;;;1.00;0.20;;;;;;;;;;2093265;28;20028;-68
2022/08/07 01:46:39;;;;;;;2.55;0.63;;;;;;;;;;2097225;28;20029;-67
2022/08/07 01:47:58;;;;;;;1.17;0.43;;;;;;;;;;2098714;28;20488;-67
2022/08/07 01:49:17;;;;;;;0.95;0.30;;;;;;;;;;2100918;28;20020;-67
2022/08/07 01:50:37;;;;;;;0.20;0.10;;;;;;;;;;2101374;28;20024;-67
2022/08/07 01:51:57;;;;;;;0.52;0.28;;;;;;;;;;2097553;28;20489;-67
2022/08/07 01:53:18;;;;;;;0.25;0.10;;;;;;;;;;2101315;28;20029;-69
2022/08/07 01:54:39;;;;;;;1.15;0.40;;;;;;;;;;2101532;28;20021;-67
2022/08/07 01:56:01;;;;;;;0.82;0.35;;;;;;;;;;2100702;28;20032;-67
2022/08/07 01:57:21;;;;;;;3.40;0.25;;;;;;;;;;2104954;28;20024;-67
2022/08/07 01:58:45;;;;;;;2.20;0.30;;;;;;;;;;2098495;28;20028;-68
2022/08/07 02:00:06;;;;;;;3.60;0.40;;;;;;;;;;2099883;28;20515;-69
2022/08/07 02:01:26;;;;;;;2.95;0.28;;;;;;;;;;2100272;28;20037;-67
2022/08/07 02:02:51;;;;;;;4.13;0.50;;;;;;;;;;2102482;28;20021;-67
2022/08/07 02:04:22;;;;;;;1.77;0.40;;;;;;;;;;2099969;28;20024;-68
2022/08/07 02:05:48;;;;;;;2.72;0.22;;;;;;;;;;2101673;28;20036;-67
2022/08/07 02:07:08;;;;;;;2.05;0.40;;;;;;;;;;2098885;28;20497;-67
2022/08/07 02:08:29;;;;;;;2.50;0.40;;;;;;;;;;2099654;28;20476;-68
2022/08/07 02:09:50;;;;;;;0.50;0.20;;;;;;;;;;2099014;28;20032;-67
2022/08/07 02:11:09;;;;;;;2.67;0.32;;;;;;;;;;2098434;28;20029;-67
2022/08/07 02:12:32;;;;;;;1.05;0.32;;;;;;;;;;2098460;28;20031;-67
2022/08/07 02:13:52;;;;;;;2.28;0.30;;;;;;;;;;2100035;28;20036;-67
2022/08/07 02:15:11;;;;;;;0.80;0.30;;;;;;;;;;2096140;28;20016;-67
2022/08/07 02:16:30;;;;;;;1.65;0.68;;;;;;;;;;2099622;28;20049;-67
2022/08/07 02:17:50;;;;;;;0.73;0.30;;;;;;;;;;2099624;28;20040;-67
2022/08/07 02:19:10;;;;;;;1.58;0.30;;;;;;;;;;2101418;28;20033;-67
2022/08/07 02:20:31;;;;;;;0.93;0.30;;;;;;;;;;2102302;28;20484;-67
2022/08/07 02:21:51;;;;;;;1.13;0.60;;;;;;;;;;2098858;28;20048;-67
2022/08/07 02:23:10;;;;;;;2.85;0.40;;;;;;;;;;2096617;28;20028;-67
2022/08/07 02:24:29;;;;;;;0.90;0.30;;;;;;;;;;2099290;28;21342;-67
2022/08/07 02:25:49;;;;;;;1.23;0.30;;;;;;;;;;2101619;28;20040;-67
2022/08/07 02:27:08;;;;;;;1.75;0.28;;;;;;;;;;2098825;28;20060;-67
2022/08/07 02:28:28;;;;;;;1.10;0.43;;;;;;;;;;2100287;28;20023;-67
2022/08/07 02:29:47;;;;;;;0.50;0.32;;;;;;;;;;2100371;28;20025;-67
2022/08/07 02:31:06;;;;;;;1.58;0.25;;;;;;;;;;2098965;28;20032;-68
2022/08/07 02:32:26;;;;;;;1.45;0.43;;;;;;;;;;2099746;28;20051;-67
2022/08/07 02:33:45;;;;;;;2.05;0.25;;;;;;;;;;2101008;28;20056;-67
2022/08/07 02:35:06;;;;;;;1.27;0.60;;;;;;;;;;2099341;28;20489;-67
2022/08/07 02:36:26;;;;;;;1.75;0.40;;;;;;;;;;2101736;28;20016;-67
2022/08/07 02:37:46;;;;;;;2.20;0.30;;;;;;;;;;2099181;28;20397;-67
2022/08/07 02:39:06;;;;;;;1.65;0.52;;;;;;;;;;2098493;28;20036;-67
2022/08/07 02:40:25;;;;;;;2.60;0.50;;;;;;;;;;2099346;28;20024;-67
2022/08/07 02:41:45;;;;;;;2.83;0.43;;;;;;;;;;2101403;28;20051;-69
2022/08/07 02:43:04;;;;;;;2.38;0.50;;;;;;;;;;2097660;28;20036;-67
2022/08/07 02:44:24;;;;;;;1.38;0.30;;;;;;;;;;2095115;28;20024;-68
2022/08/07 02:45:44;;;;;;;2.08;0.60;;;;;;;;;;2092902;28;20106;-67
2022/08/07 02:47:04;;;;;;;1.52;0.30;;;;;;;;;;2096584;28;20028;-67
2022/08/07 02:48:24;;;;;;;1.42;0.32;;;;;;;;;;2095701;28;20124;-69
2022/08/07 02:49:43;;;;;;;2.33;0.60;;;;;;;;;;2094876;28;20080;-68
2022/08/07 02:51:05;;;;;;;1.17;0.30;;;;;;;;;;2098113;28;20064;-66
2022/08/07 02:52:36;;;;;;;0.90;0.68;;;;;;;;;;2100667;28;20024;-67
2022/08/07 02:53:56;;;;;;;1.00;0.38;;;;;;;;;;2100048;28;20443;-67
2022/08/07 02:55:17;;;;;;;3.60;0.40;;;;;;;;;;2099675;28;20037;-67
2022/08/07 02:56:38;;;;;;;1.50;0.35;;;;;;;;;;2100496;28;20063;-67
2022/08/07 02:58:01;;;;;;;2.50;0.22;;;;;;;;;;2099513;28;20485;-67
2022/08/07 02:59:23;;;;;;;1.40;0.47;;;;;;;;;;2100854;28;20028;-66
2022/08/07 03:00:42;;;;;;;3.97;0.55;;;;;;;;;;2097467;28;20468;-67
2022/08/07 03:02:02;;;;;;;0.70;0.30;;;;;;;;;;2100040;28;20024;-67
2022/08/07 03:03:22;;;;;;;1.45;0.45;;;;;;;;;;2099540;28;20372;-67
2022/08/07 03:04:42;;;;;;;1.05;0.45;;;;;;;;;;2102232;28;20492;-67
2022/08/07 03:06:02;;;;;;;2.15;0.75;;;;;;;;;;2099168;28;20384;-70
2022/08/07 03:07:21;;;;;;;1.63;0.40;;;;;;;;;;2104761;28;20107;-67
2022/08/07 03:08:40;;;;;;;1.35;0.40;;;;;;;;;;2101950;28;20025;-69
2022/08/07 03:09:59;;;;;;;2.55;0.45;;;;;;;;;;2099884;28;20028;-67
2022/08/07 03:11:19;;;;;;;0.85;0.30;;;;;;;;;;2101028;28;20448;-71
2022/08/07 03:12:38;;;;;;;1.33;0.55;;;;;;;;;;2098002;28;20028;-67
2022/08/07 03:13:57;;;;;;;3.05;0.55;;;;;;;;;;2098816;28;20032;-70
2022/08/07 03:15:16;;;;;;;2.10;0.55;;;;;;;;;;2098764;28;20035;-68
2022/08/07 03:16:35;;;;;;;0.75;0.50;;;;;;;;;;2100202;28;20029;-67
2022/08/07 03:17:55;;;;;;;1.33;0.32;;;;;;;;;;2101300;28;20025;-67
2022/08/07 03:19:14;;;;;;;1.95;0.45;;;;;;;;;;2098442;28;20434;-67
2022/08/07 03:20:33;;;;;;;3.05;0.45;;;;;;;;;;2099288;28;20464;-68
2022/08/07 03:21:51;;;;;;;1.38;0.52;;;;;;;;;;2101020;28;20032;-67
2022/08/07 03:23:11;;;;;;;2.13;0.45;;;;;;;;;;2098546;28;20104;-67
2022/08/07 03:24:29;;;;;;;3.30;0.40;;;;;;;;;;2099332;28;20325;-67
2022/08/07 03:25:49;;;;;;;0.82;0.40;;;;;;;;;;2100305;28;20041;-68
2022/08/07 03:27:08;;;;;;;2.85;0.70;;;;;;;;;;2100150;28;20036;-67
2022/08/07 03:28:28;;;;;;;2.53;0.47;;;;;;;;;;2100380;28;20033;-67
2022/08/07 03:29:50;;;;;;;4.13;0.47;;;;;;;;;;2100011;28;20040;-67
2022/08/07 03:31:18;;;;;;;2.10;0.38;;;;;;;;;;2099251;28;20036;-67
2022/08/07 03:32:39;;;;;;;1.27;0.60;;;;;;;;;;2100546;28;20033;-67
2022/08/07 03:34:01;;;;;;;2.58;0.52;;;;;;;;;;2097420;28;20112;-67
2022/08/07 03:35:24;;;;;;;0.82;0.28;;;;;;;;;;2098145;28;20024;-68
2022/08/07 03:36:44;;;;;;;3.28;0.70;;;;;;;;;;2100921;28;20032;-67
2022/08/07 03:38:05;;;;;;;2.15;0.75;;;;;;;;;;2101417;28;20066;-67
2022/08/07 03:39:24;;;;;;;1.27;0.65;;;;;;;;;;2101546;28;20036;-67
2022/08/07 03:40:44;;;;;;;4.60;0.73;;;;;;;;;;2098676;28;20111;-68
2022/08/07 03:42:03;;;;;;;1.00;0.50;;;;;;;;;;2099226;28;20524;-67
2022/08/07 03:43:22;;;;;;;1.75;0.80;;;;;;;;;;2099206;28;20115;-68
2022/08/07 03:44:41;;;;;;;0.88;0.50;;;;;;;;;;2102034;28;20492;-66
2022/08/07 03:46:01;;;;;;;1.98;0.47;;;;;;;;;;2097510;28;20410;-68
2022/08/07 03:47:20;;;;;;;1.13;0.40;;;;;;;;;;2097104;28;20441;-66
2022/08/07 03:48:40;;;;;;;3.38;0.63;;;;;;;;;;2097558;28;20036;-67
2022/08/07 03:49:59;;;;;;;1.77;0.55;;;;;;;;;;2099678;28;20272;-67
2022/08/07 03:51:19;;;;;;;1.08;0.52;;;;;;;;;;2100502;28;20031;-66
2022/08/07 03:52:38;;;;;;;0.60;0.45;;;;;;;;;;2099184;28;20381;-67
2022/08/07 03:54:00;;;;;;;0.68;0.47;;;;;;;;;;2097829;28;20365;-67
2022/08/07 03:55:19;;;;;;;4.22;0.47;;;;;;;;;;2098261;28;20032;-67
2022/08/07 03:56:39;;;;;;;1.40;0.60;;;;;;;;;;2098620;28;20060;-67
2022/08/07 03:57:58;;;;;;;4.32;1.20;;;;;;;;;;2099804;28;20036;-67
2022/08/07 03:59:17;;;;;;;3.20;0.82;;;;;;;;;;2098829;28;20380;-67
2022/08/07 04:00:37;;;;;;;2.03;0.60;;;;;;;;;;2097286;28;20036;-67
2022/08/07 04:01:57;;;;;;;2.47;0.80;;;;;;;;;;2097780;28;20028;-67
2022/08/07 04:03:16;;;;;;;3.83;1.02;;;;;;;;;;2100236;28;20036;-68
2022/08/07 04:04:35;;;;;;;3.50;0.77;;;;;;;;;;2095303;28;20028;-67
2022/08/07 04:05:53;;;;;;;4.40;0.80;;;;;;;;;;2095350;28;20040;-67
2022/08/07 04:07:14;;;;;;;1.55;0.55;;;;;;;;;;2100710;28;20147;-67
2022/08/07 04:08:34;;;;;;;4.68;0.75;;;;;;;;;;2109010;28;20446;-66
2022/08/07 04:09:53;;;;;;;2.50;0.57;;;;;;;;;;2102333;28;20032;-67
2022/08/07 04:11:12;;;;;;;2.22;0.70;;;;;;;;;;2098379;28;20029;-67
2022/08/07 04:12:31;;;;;;;3.50;0.50;;;;;;;;;;2098110;28;20028;-67
2022/08/07 04:13:50;;;;;;;4.05;0.50;;;;;;;;;;2102176;28;20032;-68
2022/08/07 04:15:10;;;;;;;2.38;0.70;;;;;;;;;;2099899;28;20404;-67
2022/08/07 04:16:30;;;;;;;2.72;1.05;;;;;;;;;;2100985;28;20066;-66
2022/08/07 04:17:49;;;;;;;4.95;0.60;;;;;;;;;;2101378;28;20493;-67
2022/08/07 04:19:07;;;;;;;2.72;0.50;;;;;;;;;;2100675;28;20040;-67
2022/08/07 04:20:27;;;;;;;5.85;0.68;;;;;;;;;;2102782;28;20016;-68
2022/08/07 04:21:45;;;;;;;2.30;0.63;;;;;;;;;;2101452;28;20036;-67
2022/08/07 04:23:05;;;;;;;3.08;1.23;;;;;;;;;;2101071;28;20036;-67
2022/08/07 04:24:24;;;;;;;1.25;0.60;;;;;;;;;;2099463;28;20029;-67
2022/08/07 04:25:44;;;;;;;4.65;0.85;;;;;;;;;;2101851;28;20103;-67
2022/08/07 04:27:03;;;;;;;3.22;0.60;;;;;;;;;;2101536;28;20040;-67
2022/08/07 04:28:22;;;;;;;1.80;0.70;;;;;;;;;;2100006;28;20033;-67
2022/08/07 04:29:42;;;;;;;2.40;0.95;;;;;;;;;;2100499;28;20040;-69
2022/08/07 04:31:01;;;;;;;3.42;0.60;;;;;;;;;;2099359;28;20036;-67
2022/08/07 04:32:21;;;;;;;3.35;0.95;;;;;;;;;;2101844;28;20025;-67
2022/08/07 04:33:40;;;;;;;4.30;1.10;;;;;;;;;;2099694;28;20024;-68
2022/08/07 04:34:59;;;;;;;3.80;0.80;;;;;;;;;;2098599;28;20028;-68
2022/08/07 04:36:18;;;;;;;2.20;1.00;;;;;;;;;;2102363;28;20024;-70
2022/08/07 04:37:37;;;;;;;2.60;0.80;;;;;;;;;;2101664;28;20025;-68
2022/08/07 04:38:56;;;;;;;4.05;0.80;;;;;;;;;;2101452;28;20028;-68
2022/08/07 04:40:16;;;;;;;4.05;0.80;;;;;;;;;;2100095;28;20032;-70
2022/08/07 04:41:35;;;;;;;3.40;0.80;;;;;;;;;;2102832;28;20024;-68
2022/08/07 04:42:54;;;;;;;8.30;1.10;;;;;;;;;;2101563;28;20400;-68
2022/08/07 04:44:14;;;;;;;1.95;0.52;;;;;;;;;;2099178;28;20110;-67
2022/08/07 04:45:39;;;;;;;5.20;1.23;;;;;;;;;;2098467;28;20493;-67
2022/08/07 04:47:01;;;;;;;3.20;0.80;;;;;;;;;;2102072;28;20076;-68
2022/08/07 04:48:40;;;;;;;5.25;1.00;;;;;;;;;;2097657;28;21543;-67
2022/08/07 04:50:08;;;;;;;5.95;1.10;;;;;;;;;;2097494;28;20488;-70
2022/08/07 04:51:40;;;;;;;7.47;1.20;;;;;;;;;;2101131;28;20033;-67
2022/08/07 04:53:04;;;;;;;2.88;1.00;;;;;;;;;;2096615;28;20036;-68
2022/08/07 04:54:23;;;;;;;4.50;1.02;;;;;;;;;;2097603;28;20033;-67
2022/08/07 04:55:48;;;;;;;3.45;0.95;;;;;;;;;;2097379;28;20115;-67
2022/08/07 04:57:15;;;;;;;4.93;0.82;;;;;;;;;;2101986;28;20040;-68
2022/08/07 04:58:34;;;;;;;5.25;1.10;;;;;;;;;;2101483;28;20496;-67
2022/08/07 05:00:02;;;;;;;9.73;1.45;;;;;;;;;;2099794;28;20485;-67
2022/08/07 05:01:54;;;;;;;5.38;0.95;;;;;;;;;;2100655;28;20044;-69
2022/08/07 05:03:20;;;;;;;4.63;0.90;;;;;;;;;;2094767;28;20032;-67
2022/08/07 05:04:41;;;;;;;3.92;0.93;;;;;;;;;;2099810;28;20028;-68
2022/08/07 05:06:08;;;;;;;2.15;1.00;;;;;;;;;;2093618;28;20033;-69
2022/08/07 05:07:42;;;;;;;4.20;0.98;;;;;;;;;;2095253;28;20442;-67
2022/08/07 05:09:22;;;;;;;2.97;1.05;;;;;;;;;;2100473;28;20032;-68
2022/08/07 05:10:44;;;;;;;3.20;0.95;;;;;;;;;;2099587;28;20024;-67
2022/08/07 05:12:03;;;;;;;4.25;1.33;;;;;;;;;;2100784;28;20414;-68
2022/08/07 05:13:27;;;;;;;3.08;1.08;;;;;;;;;;2099691;28;20028;-68
2022/08/07 05:14:47;;;;;;;2.03;1.05;;;;;;;;;;2100014;28;20067;-68
2022/08/07 05:16:08;;;;;;;4.22;0.95;;;;;;;;;;2098442;28;20041;-68
2022/08/07 05:17:27;;;;;;;4.78;1.10;;;;;;;;;;2100675;28;20584;-68
2022/08/07 05:18:55;;;;;;;3.97;1.52;;;;;;;;;;2101323;28;20063;-67
2022/08/07 05:20:15;;;;;;;4.43;1.38;;;;;;;;;;2099909;28;20103;-67
2022/08/07 05:21:35;;;;;;;2.92;1.00;;;;;;;;;;2099941;28;20564;-67
2022/08/07 05:23:00;;;;;;;4.95;0.95;;;;;;;;;;2099173;28;20041;-67
2022/08/07 05:24:20;;;;;;;2.78;0.80;;;;;;;;;;2100747;28;20025;-67
2022/08/07 05:25:41;;;;;;;3.55;0.95;;;;;;;;;;2099338;28;20029;-67
2022/08/07 05:27:00;;;;;;;4.38;1.17;;;;;;;;;;2096427;28;20496;-67
2022/08/07 05:28:20;;;;;;;3.35;1.02;;;;;;;;;;2102054;28;20607;-67
2022/08/07 05:29:40;;;;;;;4.65;1.38;;;;;;;;;;2096626;28;20032;-68
2022/08/07 05:31:00;;;;;;;5.03;0.95;;;;;;;;;;2098479;28;20032;-67
2022/08/07 05:32:19;;;;;;;4.07;1.00;;;;;;;;;;2100220;28;20021;-67
2022/08/07 05:33:38;;;;;;;8.43;1.42;;;;;;;;;;2101518;28;20497;-67
2022/08/07 05:34:58;;;;;;;2.20;1.40;;;;;;;;;;2099992;28;20028;-67
2022/08/07 05:36:19;;;;;;;6.18;1.63;;;;;;;;;;2105862;28;20063;-68
2022/08/07 05:37:39;;;;;;;5.10;1.10;;;;;;;;;;2102979;28;20016;-67
2022/08/07 05:38:59;;;;;;;5.07;1.35;;;;;;;;;;2099335;28;20111;-68
2022/08/07 05:40:18;;;;;;;4.68;1.33;;;;;;;;;;2097800;28;20024;-67
2022/08/07 05:41:37;;;;;;;4.65;1.10;;;;;;;;;;2101284;28;20427;-67
2022/08/07 05:42:56;;;;;;;3.50;0.90;;;;;;;;;;2097080;28;20036;-67
2022/08/07 05:44:16;;;;;;;6.65;1.40;;;;;;;;;;2100429;28;20025;-67
2022/08/07 05:45:36;;;;;;;4.20;1.25;;;;;;;;;;2096297;28;20040;-69
2022/08/07 05:46:55;;;;;;;5.47;1.30;;;;;;;;;;2099203;28;20469;-69
2022/08/07 05:48:14;;;;;;;5.95;1.42;;;;;;;;;;2100107;28;20033;-68
2022/08/07 05:49:33;;;;;;;6.45;1.10;;;;;;;;;;2096542;28;20071;-68
2022/08/07 05:50:52;;;;;;;5.25;1.42;;;;;;;;;;2097406;28;20065;-69
2022/08/07 05:52:11;;;;;;;3.75;1.67;;;;;;;;;;2100027;28;20025;-67
2022/08/07 05:53:30;;;;;;;3.83;1.40;;;;;;;;;;2100331;28;20025;-67
2022/08/07 05:54:49;;;;;;;3.85;1.20;;;;;;;;;;2100587;28;20037;-68
2022/08/07 05:56:08;;;;;;;6.10;1.80;;;;;;;;;;2098945;28;20032;-67
2022/08/07 05:57:28;;;;;;;7.22;1.77;;;;;;;;;;2099571;28;20021;-67
2022/08/07 05:58:47;;;;;;;2.17;1.08;;;;;;;;;;2099584;28;20063;-67
2022/08/07 06:00:07;;;;;;;6.10;1.85;;;;;;;;;;2102036;28;20423;-68
2022/08/07 06:01:27;;;;;;;3.50;1.40;;;;;;;;;;2102545;28;20025;-67
2022/08/07 06:02:49;;;;;;;6.15;1.90;;;;;;;;;;2097106;28;20021;-67
2022/08/07 06:04:09;;;;;;;3.45;1.10;;;;;;;;;;2098021;28;20017;-67
2022/08/07 06:05:30;;;;;;;7.72;1.50;;;;;;;;;;2097950;28;20599;-67
2022/08/07 06:06:48;;;;;;;3.33;1.15;;;;;;;;;;2100105;28;20404;-68
2022/08/07 06:08:08;;;;;;;6.18;1.42;;;;;;;;;;2101221;28;20029;-67
2022/08/07 06:09:27;;;;;;;6.55;1.50;;;;;;;;;;2098639;28;20076;-71
2022/08/07 06:10:46;;;;;;;4.03;1.30;;;;;;;;;;2100106;28;20024;-67
2022/08/07 06:12:05;;;;;;;6.05;1.35;;;;;;;;;;2099894;28;20032;-68
2022/08/07 06:13:24;;;;;;;7.38;2.15;;;;;;;;;;2100719;28;20020;-66
2022/08/07 06:14:43;;;;;;;7.07;1.60;;;;;;;;;;2097558;28;20072;-71
2022/08/07 06:16:02;;;;;;;2.97;0.90;;;;;;;;;;2098564;28;20032;-67
2022/08/07 06:17:21;;;;;;;3.78;1.23;;;;;;;;;;2100873;28;20032;-70
2022/08/07 06:18:40;;;;;;;5.38;1.52;;;;;;;;;;2100844;28;20028;-67
2022/08/07 06:20:00;;;;;;;4.47;1.67;;;;;;;;;;2098315;28;20032;-68
2022/08/07 06:21:19;;;;;;;4.82;1.60;;;;;;;;;;2099709;28;20033;-67
2022/08/07 06:22:39;;;;;;;4.50;1.23;;;;;;;;;;2099374;28;20025;-68
2022/08/07 06:23:58;;;;;;;3.72;1.35;;;;;;;;;;2098546;28;20028;-70
2022/08/07 06:25:17;;;;;;;8.20;1.33;;;;;;;;;;2098967;28;20020;-68
2022/08/07 06:26:41;;;;;;;6.85;1.35;;;;;;;;;;2099581;28;20457;-68
2022/08/07 06:28:03;;;;;;;3.28;1.27;;;;;;;;;;2097386;28;20036;-67
2022/08/07 06:29:26;;;;;;;2.97;0.95;;;;;;;;;;2100059;28;20036;-68
2022/08/07 06:30:44;;;;;;;2.15;1.02;;;;;;;;;;2095567;28;20024;-68
2022/08/07 06:32:03;;;;;;;5.43;1.92;;;;;;;;;;2096640;28;20497;-68
2022/08/07 06:33:23;;;;;;;3.47;1.20;;;;;;;;;;2099847;28;20028;-67
2022/08/07 06:34:41;;;;;;;4.70;1.40;;;;;;;;;;2097375;28;20453;-69
2022/08/07 06:36:01;;;;;;;10.60;1.55;;;;;;;;;;2096629;28;20036;-67
2022/08/07 06:37:19;;;;;;;5.35;1.48;;;;;;;;;;2099140;28;20028;-67
2022/08/07 06:38:39;;;;;;;4.15;1.45;;;;;;;;;;2099724;28;20103;-69
2022/08/07 06:39:58;;;;;;;4.78;2.05;;;;;;;;;;2098884;28;20044;-68
2022/08/07 06:41:23;;;;;;;5.43;1.75;;;;;;;;;;2099599;28;20028;-69
2022/08/07 06:42:44;;;;;;;8.82;1.92;;;;;;;;;;2098029;28;20028;-68
2022/08/07 06:44:04;;;;;;;3.97;1.58;;;;;;;;;;2098801;28;20551;-67
2022/08/07 06:45:23;;;;;;;6.25;1.58;;;;;;;;;;2098003;28;20056;-67
2022/08/07 06:46:42;;;;;;;6.07;1.48;;;;;;;;;;2098722;28;20406;-68
2022/08/07 06:48:01;;;;;;;5.78;1.40;;;;;;;;;;2098128;28;20496;-68
2022/08/07 06:49:20;;;;;;;5.60;1.45;;;;;;;;;;2100020;28;20046;-68
2022/08/07 06:50:40;;;;;;;4.65;1.17;;;;;;;;;;2097462;28;20020;-68
2022/08/07 06:52:00;;;;;;;6.60;1.67;;;;;;;;;;2099072;28;20036;-68
2022/08/07 06:53:21;;;;;;;4.47;1.50;;;;;;;;;;2100659;28;20485;-68
2022/08/07 06:54:40;;;;;;;2.88;1.65;;;;;;;;;;2099734;28;20020;-67
2022/08/07 06:56:00;;;;;;;7.97;1.88;;;;;;;;;;2099018;28;20064;-68
2022/08/07 06:57:19;;;;;;;6.78;1.83;;;;;;;;;;2097401;28;20037;-68
2022/08/07 06:58:39;;;;;;;6.45;1.77;;;;;;;;;;2099729;28;20032;-67
2022/08/07 06:59:58;;;;;;;4.13;1.63;;;;;;;;;;2099301;28;21205;-67
2022/08/07 07:01:17;;;;;;;4.93;1.55;;;;;;;;;;2098416;28;20440;-69
2022/08/07 07:02:37;;;;;;;6.93;1.60;;;;;;;;;;2097101;28;20040;-66
2022/08/07 07:03:56;;;;;;;4.78;1.60;;;;;;;;;;2097019;28;20024;-67
2022/08/07 07:05:15;;;;;;;3.47;1.60;;;;;;;;;;2099934;28;20029;-66
2022/08/07 07:06:35;;;;;;;5.70;1.88;;;;;;;;;;2099783;28;20056;-67
2022/08/07 07:07:55;;;;;;;6.20;1.65;;;;;;;;;;2100187;28;20393;-65
2022/08/07 07:09:29;;;;;;;6.47;2.00;;;;;;;;;;2098509;28;20036;-66
2022/08/07 07:10:48;;;;;;;5.07;1.50;;;;;;;;;;2098374;28;20033;-66
2022/08/07 07:12:18;;;;;;;5.22;1.88;;;;;;;;;;2099560;28;20040;-66
2022/08/07 07:13:39;;;;;;;6.57;1.70;;;;;;;;;;2099978;28;20060;-66
2022/08/07 07:15:05;;;;;;;6.30;2.15;;;;;;;;;;2100840;28;20016;-70
2022/08/07 07:16:24;;;;;;;4.53;1.95;;;;;;;;;;2098372;28;20032;-66
2022/08/07 07:17:46;;;;;;;4.95;1.30;;;;;;;;;;2099108;28;20036;-66
2022/08/07 07:19:06;;;;;;;4.38;1.55;;;;;;;;;;2101132;28;20508;-66
2022/08/07 07:20:28;;;;;;;5.60;1.38;;;;;;;;;;2099623;28;20040;-67
2022/08/07 07:21:48;;;;;;;6.45;1.55;;;;;;;;;;2095353;28;20111;-66
2022/08/07 07:23:08;;;;;;;3.78;1.58;;;;;;;;;;2095124;28;20107;-66
2022/08/07 07:24:27;;;;;;;11.38;1.85;;;;;;;;;;2099170;28;20024;-67
2022/08/07 07:25:47;;;;;;;6.50;1.55;;;;;;;;;;2099193;28;20464;-67
2022/08/07 07:27:07;;;;;;;3.30;1.20;;;;;;;;;;2099040;28;20025;-66
2022/08/07 07:28:33;;;;;;;4.80;1.35;;;;;;;;;;2100999;28;20396;-66
2022/08/07 07:29:55;;;;;;;6.20;1.52;;;;;;;;;;2100046;28;20043;-66
2022/08/07 07:31:23;;;;;;;2.97;1.48;;;;;;;;;;2096538;28;20021;-67
2022/08/07 07:32:43;;;;;;;5.88;1.70;;;;;;;;;;2096045;28;20021;-66
2022/08/07 07:34:04;;;;;;;4.22;1.45;;;;;;;;;;2099319;28;20020;-67
2022/08/07 07:35:23;;;;;;;6.63;1.85;;;;;;;;;;2099215;28;20032;-66
2022/08/07 07:36:43;;;;;;;7.20;1.67;;;;;;;;;;2100655;28;20028;-66
2022/08/07 07:38:04;;;;;;;8.32;1.80;;;;;;;;;;2100088;28;20045;-66
2022/08/07 07:39:25;;;;;;;3.22;1.20;;;;;;;;;;2099363;28;20020;-66
2022/08/07 07:40:45;;;;;;;8.57;1.58;;;;;;;;;;2097574;28;20114;-66
2022/08/07 07:42:06;;;;;;;6.78;1.80;;;;;;;;;;2099569;28;20112;-66
2022/08/07 07:43:27;;;;;;;6.25;1.20;;;;;;;;;;2099187;28;20029;-67
2022/08/07 07:44:47;;;;;;;3.58;1.30;;;;;;;;;;2101219;28;20036;-66
2022/08/07 07:46:07;;;;;;;8.05;1.45;;;;;;;;;;2100934;28;20029;-66
2022/08/07 07:47:27;;;;;;;6.10;1.65;;;;;;;;;;2098780;28;20059;-67
2022/08/07 07:48:47;;;;;;;6.00;2.15;;;;;;;;;;2099804;28;20048;-66
2022/08/07 07:50:08;;;;;;;7.72;1.90;;;;;;;;;;2099827;28;20032;-68
2022/08/07 07:51:27;;;;;;;3.53;1.73;;;;;;;;;;2100634;28;20032;-70
2022/08/07 07:52:46;;;;;;;8.32;1.73;;;;;;;;;;2098131;28;20110;-65
2022/08/07 07:54:06;;;;;;;8.20;2.60;;;;;;;;;;2100407;28;20542;-65
2022/08/07 07:55:26;;;;;;;8.32;2.17;;;;;;;;;;2101606;28;20032;-66
2022/08/07 07:56:45;;;;;;;5.28;1.80;;;;;;;;;;2101544;28;20445;-66
2022/08/07 07:58:04;;;;;;;10.27;2.00;;;;;;;;;;2099650;28;20381;-66
2022/08/07 07:59:24;;;;;;;2.50;1.42;;;;;;;;;;2100359;28;20471;-67
2022/08/07 08:00:44;;;;;;;4.57;1.65;;;;;;;;;;2096896;28;20162;-67
2022/08/07 08:02:04;;;;;;;3.97;1.63;;;;;;;;;;2099501;28;20070;-67